Daisinmaru No.11 — JK5352 — position and weather

sailwx.info

Track history (hours):
 
Tides and Currents Weather Stations Pressure Air Temp Water Temp Dewpoint Dewpoint Depression Visibility Wind Speed Wind Dir Waves Ship Positions

Daisinmaru No.11

Last reported at 2017-Nov-12 22:48 UTC. Time now 2017-Nov-22 09:04 UTC.
Position N 35°35' E 139°47'.
Warning: this ship's position is 9 days out of date.

Length 52 m.

MMSI: 431000667.

Date/timePositionNaut miles runAvg speedWind from/ knotsBaromVisibWave heightAir tempDewpointWater temp
2017-Nov-12 22:48N 35°35' E 139°47'3 9.6
2017-Nov-12 22:31N 35°33' E 139°50'  
2017-Nov-10 02:19N 35°28' E 139°52'3 8.6
2017-Nov-10 01:59N 35°27' E 139°48'4 8.9
2017-Nov-10 01:30N 35°27' E 139°43'4 7.6
2017-Nov-10 01:01N 35°29' E 139°39'0 0.1
2017-Nov-10 00:30N 35°28' E 139°39'0 0.0
2017-Nov-10 00:00N 35°28' E 139°39'0 0.0
2017-Nov-09 23:30N 35°28' E 139°39'0 0.0
2017-Nov-09 23:00N 35°28' E 139°39'0 0.0
2017-Nov-09 07:08N 35°28' E 139°39'0 0.0
2017-Nov-09 07:00N 35°28' E 139°39'0 0.0
2017-Nov-09 06:30N 35°28' E 139°39'0 0.0
2017-Nov-09 06:00N 35°28' E 139°39'0 0.0
2017-Nov-09 05:30N 35°28' E 139°39'0 0.0
2017-Nov-09 05:00N 35°28' E 139°39'0 0.0
2017-Nov-09 04:30N 35°28' E 139°39'0 0.0
2017-Nov-09 04:00N 35°28' E 139°39'0 0.0
2017-Nov-09 03:30N 35°28' E 139°39'0 0.0
2017-Nov-09 03:00N 35°28' E 139°39'0 0.0
2017-Nov-09 02:30N 35°28' E 139°39'0 0.0
2017-Nov-09 02:00N 35°28' E 139°39'0 0.0
2017-Nov-09 01:30N 35°28' E 139°39'0 0.1
2017-Nov-09 01:00N 35°28' E 139°39'0 0.0
2017-Nov-09 00:30N 35°28' E 139°39'0 0.0
2017-Nov-09 00:00N 35°28' E 139°39'0 0.0
2017-Nov-08 23:30N 35°28' E 139°39'3 5.8
2017-Nov-08 23:00N 35°27' E 139°42'3 6.2
2017-Nov-08 22:30N 35°27' E 139°45'5 9.6
2017-Nov-08 22:00N 35°29' E 139°51'5 9.1
2017-Nov-08 21:26N 35°29' E 139°57'1 0.1
2017-Nov-08 04:23N 35°29' E 139°56'4 9.5
2017-Nov-08 04:00N 35°28' E 139°51'5 9.1
2017-Nov-08 03:30N 35°27' E 139°46'4 8.9
2017-Nov-08 03:01N 35°27' E 139°41'2 4.0
2017-Nov-08 02:31N 35°28' E 139°39'0 0.0
2017-Nov-08 02:01N 35°28' E 139°39'0 0.0
2017-Nov-08 01:31N 35°28' E 139°39'0 0.0
2017-Nov-08 01:01N 35°28' E 139°39'0 0.0
2017-Nov-08 00:31N 35°28' E 139°39'0 0.0
2017-Nov-08 00:01N 35°28' E 139°39'0 0.0
2017-Nov-07 23:31N 35°28' E 139°39'0 0.0
2017-Nov-07 23:01N 35°28' E 139°39'0 0.0
2017-Nov-07 06:47N 35°28' E 139°39'0 0.0
2017-Nov-07 06:30N 35°28' E 139°39'0 0.0
2017-Nov-07 06:00N 35°28' E 139°39'0 0.0
2017-Nov-07 05:30N 35°28' E 139°39'0 0.1
2017-Nov-07 05:00N 35°28' E 139°39'3 6.9
2017-Nov-07 04:30N 35°27' E 139°43'5 9.2
2017-Nov-07 03:57N 35°29' E 139°49'5 9.6
2017-Nov-07 03:28N 35°29' E 139°54'  
Track history (hours):
 
Tides and Currents Weather Stations Pressure Air Temp Water Temp Dewpoint Dewpoint Depression Visibility Wind Speed Wind Dir Waves Ship Positions

Daisinmaru No.11

Last reported at 2017-Nov-12 22:48 UTC. Time now 2017-Nov-22 09:04 UTC.
Position N 35°35' E 139°47'.
Warning: this ship's position is 9 days out of date.

Length 52 m.

MMSI: 431000667.

Date/timePositionNaut miles runAvg speedWind from/ knotsBaromVisibWave heightAir tempDewpointWater temp
2017-Nov-12 22:48N 35°35' E 139°47'3 9.6
2017-Nov-12 22:31N 35°33' E 139°50'  
2017-Nov-10 02:19N 35°28' E 139°52'3 8.6
2017-Nov-10 01:59N 35°27' E 139°48'4 8.9
2017-Nov-10 01:30N 35°27' E 139°43'4 7.6
2017-Nov-10 01:01N 35°29' E 139°39'0 0.1
2017-Nov-10 00:30N 35°28' E 139°39'0 0.0
2017-Nov-10 00:00N 35°28' E 139°39'0 0.0
2017-Nov-09 23:30N 35°28' E 139°39'0 0.0
2017-Nov-09 23:00N 35°28' E 139°39'0 0.0
2017-Nov-09 07:08N 35°28' E 139°39'0 0.0
2017-Nov-09 07:00N 35°28' E 139°39'0 0.0
2017-Nov-09 06:30N 35°28' E 139°39'0 0.0
2017-Nov-09 06:00N 35°28' E 139°39'0 0.0
2017-Nov-09 05:30N 35°28' E 139°39'0 0.0
2017-Nov-09 05:00N 35°28' E 139°39'0 0.0
2017-Nov-09 04:30N 35°28' E 139°39'0 0.0
2017-Nov-09 04:00N 35°28' E 139°39'0 0.0
2017-Nov-09 03:30N 35°28' E 139°39'0 0.0
2017-Nov-09 03:00N 35°28' E 139°39'0 0.0
2017-Nov-09 02:30N 35°28' E 139°39'0 0.0
2017-Nov-09 02:00N 35°28' E 139°39'0 0.0
2017-Nov-09 01:30N 35°28' E 139°39'0 0.1
2017-Nov-09 01:00N 35°28' E 139°39'0 0.0
2017-Nov-09 00:30N 35°28' E 139°39'0 0.0
2017-Nov-09 00:00N 35°28' E 139°39'0 0.0
2017-Nov-08 23:30N 35°28' E 139°39'3 5.8
2017-Nov-08 23:00N 35°27' E 139°42'3 6.2
2017-Nov-08 22:30N 35°27' E 139°45'5 9.6
2017-Nov-08 22:00N 35°29' E 139°51'5 9.1
2017-Nov-08 21:26N 35°29' E 139°57'1 0.1
2017-Nov-08 04:23N 35°29' E 139°56'4 9.5
2017-Nov-08 04:00N 35°28' E 139°51'5 9.1
2017-Nov-08 03:30N 35°27' E 139°46'4 8.9
2017-Nov-08 03:01N 35°27' E 139°41'2 4.0
2017-Nov-08 02:31N 35°28' E 139°39'0 0.0
2017-Nov-08 02:01N 35°28' E 139°39'0 0.0
2017-Nov-08 01:31N 35°28' E 139°39'0 0.0
2017-Nov-08 01:01N 35°28' E 139°39'0 0.0
2017-Nov-08 00:31N 35°28' E 139°39'0 0.0
2017-Nov-08 00:01N 35°28' E 139°39'0 0.0
2017-Nov-07 23:31N 35°28' E 139°39'0 0.0
2017-Nov-07 23:01N 35°28' E 139°39'0 0.0
2017-Nov-07 06:47N 35°28' E 139°39'0 0.0
2017-Nov-07 06:30N 35°28' E 139°39'0 0.0
2017-Nov-07 06:00N 35°28' E 139°39'0 0.0
2017-Nov-07 05:30N 35°28' E 139°39'0 0.1
2017-Nov-07 05:00N 35°28' E 139°39'3 6.9
2017-Nov-07 04:30N 35°27' E 139°43'5 9.2
2017-Nov-07 03:57N 35°29' E 139°49'5 9.6
2017-Nov-07 03:28N 35°29' E 139°54'  

Dump ship's entire track history